Skip to main content

Lousã (Aeródromo)

ID 1210697 · 40.1439, -8.2441 map

Latest reading · 2026-05-09 19:00 (Europe/Lisbon)

Temperature
13.1 °C
Humidity
86 %
Pressure
Precipitation
0.0 mm
Radiation
Wind speed
7.9 km/h
Wind direction
SW · South-west

24-hour history

Time (Europe/Lisbon) Temp Humidity Pressure Rain Wind Dir
2026-05-09 19:00 13.1 °C 86 % 0.0 mm 7.9 km/h SW
2026-05-09 18:00 13.8 °C 82 % 0.0 mm 13.0 km/h S
2026-05-09 17:00 17.4 °C 73 % 0.0 mm 11.2 km/h SW
2026-05-09 16:00 20.3 °C 59 % 0.0 mm 13.0 km/h SW
2026-05-09 15:00 20.1 °C 61 % 0.0 mm 10.8 km/h SW
2026-05-09 14:00 18.6 °C 69 % 0.0 mm 10.1 km/h S
2026-05-09 13:00 17.9 °C 70 % 0.0 mm 7.9 km/h S
2026-05-09 12:00 17.7 °C 68 % 0.0 mm 13.7 km/h S
2026-05-09 11:00 15.8 °C 81 % 0.0 mm 7.2 km/h S
2026-05-09 10:00 13.8 °C 88 % 0.0 mm 7.2 km/h N
2026-05-09 09:00 15.3 °C 73 % 0.0 mm 10.4 km/h SE
2026-05-09 08:00 15.3 °C 77 % 0.0 mm 14.0 km/h E
2026-05-09 07:00 14.1 °C 84 % 0.0 mm 8.3 km/h E
2026-05-09 06:00 15.5 °C 71 % 0.0 mm 8.6 km/h NE
2026-05-09 05:00 15.4 °C 72 % 0.0 mm 6.8 km/h S
2026-05-09 04:00 15.5 °C 68 % 0.0 mm 15.1 km/h SE
2026-05-09 03:00 15.7 °C 66 % 0.0 mm 7.2 km/h NW
2026-05-09 02:00 15.6 °C 72 % 0.0 mm 7.6 km/h E
2026-05-09 01:00 15.6 °C 71 % 0.0 mm 9.7 km/h S
2026-05-09 00:00 14.1 °C 91 % 0.0 mm 11.2 km/h SE
2026-05-08 23:00 14.1 °C 89 % 0.0 mm 4.3 km/h W
2026-05-08 22:00 17.0 °C 64 % 0.0 mm 5.4 km/h S
2026-05-08 21:00 17.8 °C 62 % 0.0 mm 4.0 km/h S
2026-05-08 20:00 19.0 °C 57 % 0.0 mm 3.6 km/h N